Time;durP1;ratioP1;P1;durP2;ratioP2;P2;SDS_P1;SDS_P2;PMS_P1;PMS_P2;Temp;Humidity;BMP_temperature;BMP_pressure;BME280_temperature;BME280_humidity;BME280_pressure;Samples;Min_cycle;Max_cycle;Signal;HPM_P1;HPM_P2
2021/06/30 00:01:54;;;;;;;1.87;1.77;;;;;;;;;;480407;247;27536;-73
2021/06/30 00:03:56;;;;;;;2.30;2.10;;;;;;;;;;480419;247;27534;-72
2021/06/30 00:05:59;;;;;;;2.27;2.17;;;;;;;;;;480419;247;28104;-72
2021/06/30 00:08:01;;;;;;;2.13;2.03;;;;;;;;;;480394;247;27582;-72
2021/06/30 00:10:03;;;;;;;2.17;2.07;;;;;;;;;;480350;247;28029;-72
2021/06/30 00:12:05;;;;;;;3.80;2.00;;;;;;;;;;480404;242;27643;-72
2021/06/30 00:14:07;;;;;;;2.50;2.00;;;;;;;;;;480374;247;27998;-72
2021/06/30 00:16:09;;;;;;;2.20;2.00;;;;;;;;;;480414;247;27515;-72
2021/06/30 00:18:11;;;;;;;2.00;1.90;;;;;;;;;;480422;247;28004;-72
2021/06/30 00:20:13;;;;;;;2.00;1.90;;;;;;;;;;480393;247;27617;-72
2021/06/30 00:22:15;;;;;;;2.23;2.13;;;;;;;;;;480392;247;27965;-72
2021/06/30 00:24:18;;;;;;;2.00;1.90;;;;;;;;;;480345;247;27633;-72
2021/06/30 00:26:20;;;;;;;1.80;1.70;;;;;;;;;;480388;247;27947;-72
2021/06/30 00:28:22;;;;;;;1.70;1.63;;;;;;;;;;480361;247;27495;-73
2021/06/30 00:30:24;;;;;;;2.33;2.10;;;;;;;;;;480391;247;27967;-72
2021/06/30 00:32:26;;;;;;;1.97;1.80;;;;;;;;;;480363;247;27490;-72
2021/06/30 00:34:28;;;;;;;1.97;1.87;;;;;;;;;;480390;247;28108;-72
2021/06/30 00:36:30;;;;;;;2.43;1.90;;;;;;;;;;480376;247;27578;-72
2021/06/30 00:38:32;;;;;;;2.80;1.97;;;;;;;;;;480376;247;27969;-72
2021/06/30 00:40:34;;;;;;;3.17;2.00;;;;;;;;;;480393;247;27630;-72
2021/06/30 00:42:37;;;;;;;1.70;1.60;;;;;;;;;;480390;247;28058;-72
2021/06/30 00:44:39;;;;;;;1.73;1.63;;;;;;;;;;480369;247;27554;-74
2021/06/30 00:46:41;;;;;;;1.87;1.73;;;;;;;;;;480382;242;28163;-72
2021/06/30 00:48:43;;;;;;;2.20;2.10;;;;;;;;;;480358;247;27499;-72
2021/06/30 00:50:45;;;;;;;2.17;2.00;;;;;;;;;;480362;247;28187;-72
2021/06/30 00:52:47;;;;;;;2.07;1.97;;;;;;;;;;480350;247;27536;-72
2021/06/30 00:54:49;;;;;;;1.83;1.73;;;;;;;;;;480373;247;28204;-72
2021/06/30 00:56:51;;;;;;;2.20;2.10;;;;;;;;;;480378;247;27542;-72
2021/06/30 00:58:54;;;;;;;2.03;1.93;;;;;;;;;;480360;247;27997;-73
2021/06/30 01:00:56;;;;;;;1.93;1.80;;;;;;;;;;480384;247;27548;-72
2021/06/30 01:02:58;;;;;;;1.83;1.73;;;;;;;;;;480335;247;28033;-72
2021/06/30 01:05:00;;;;;;;2.40;2.30;;;;;;;;;;480323;247;27547;-72
2021/06/30 01:07:02;;;;;;;2.70;2.47;;;;;;;;;;480403;247;28202;-72
2021/06/30 01:09:04;;;;;;;2.30;2.20;;;;;;;;;;480391;247;27534;-72
2021/06/30 01:11:06;;;;;;;2.00;1.90;;;;;;;;;;480375;247;28154;-72
2021/06/30 01:13:08;;;;;;;1.87;1.70;;;;;;;;;;480385;247;27583;-72
2021/06/30 01:15:10;;;;;;;2.27;2.10;;;;;;;;;;480381;247;28086;-72
2021/06/30 01:17:13;;;;;;;2.90;2.70;;;;;;;;;;480361;247;27431;-72
2021/06/30 01:19:15;;;;;;;5.50;2.43;;;;;;;;;;480380;247;28005;-72
2021/06/30 01:21:17;;;;;;;3.13;2.50;;;;;;;;;;480400;247;27640;-73
2021/06/30 01:23:19;;;;;;;2.83;2.63;;;;;;;;;;480408;247;27630;-72
2021/06/30 01:25:21;;;;;;;3.20;3.00;;;;;;;;;;480412;247;27676;-72
2021/06/30 01:27:23;;;;;;;3.13;2.77;;;;;;;;;;480378;247;27549;-72
2021/06/30 01:29:25;;;;;;;2.50;2.40;;;;;;;;;;480426;247;27625;-73
2021/06/30 01:31:27;;;;;;;2.50;2.30;;;;;;;;;;480419;247;27506;-73
2021/06/30 01:33:29;;;;;;;2.83;2.63;;;;;;;;;;480411;247;27609;-73
2021/06/30 01:35:32;;;;;;;3.97;2.90;;;;;;;;;;480395;247;28048;-72
2021/06/30 01:37:34;;;;;;;2.60;2.50;;;;;;;;;;480376;247;27602;-72
2021/06/30 01:39:36;;;;;;;3.00;2.80;;;;;;;;;;480422;247;27501;-73
2021/06/30 01:41:38;;;;;;;2.70;2.50;;;;;;;;;;480415;247;27630;-72
2021/06/30 01:43:40;;;;;;;2.80;2.70;;;;;;;;;;480391;247;27593;-73
2021/06/30 01:45:42;;;;;;;3.07;2.73;;;;;;;;;;480392;247;27547;-72
2021/06/30 01:47:44;;;;;;;2.37;2.27;;;;;;;;;;480419;247;27519;-72
2021/06/30 01:49:46;;;;;;;3.70;3.40;;;;;;;;;;480342;247;27515;-72
2021/06/30 01:51:48;;;;;;;3.30;3.10;;;;;;;;;;480383;247;27550;-72
2021/06/30 01:53:51;;;;;;;3.80;3.43;;;;;;;;;;480400;247;27580;-72
2021/06/30 01:55:53;;;;;;;4.30;3.33;;;;;;;;;;480418;247;27576;-74
2021/06/30 01:57:55;;;;;;;5.90;3.77;;;;;;;;;;480410;247;27498;-73
2021/06/30 01:59:57;;;;;;;3.47;3.17;;;;;;;;;;480395;247;27826;-72
2021/06/30 02:01:59;;;;;;;3.60;3.40;;;;;;;;;;480378;247;27531;-72
2021/06/30 02:04:01;;;;;;;4.07;3.03;;;;;;;;;;480391;247;27551;-73
2021/06/30 02:06:03;;;;;;;4.03;3.73;;;;;;;;;;480385;247;27550;-73
2021/06/30 02:08:05;;;;;;;4.27;3.20;;;;;;;;;;480394;247;27538;-72
2021/06/30 02:10:08;;;;;;;3.40;3.20;;;;;;;;;;480379;247;27552;-72
2021/06/30 02:12:10;;;;;;;3.40;3.10;;;;;;;;;;480381;247;27544;-73
2021/06/30 02:14:12;;;;;;;3.20;3.00;;;;;;;;;;480370;242;27614;-72
2021/06/30 02:16:14;;;;;;;3.03;2.73;;;;;;;;;;480337;247;27537;-72
2021/06/30 02:18:16;;;;;;;3.23;3.03;;;;;;;;;;480397;247;27567;-73
2021/06/30 02:20:18;;;;;;;9.40;3.30;;;;;;;;;;480396;247;27614;-72
2021/06/30 02:22:20;;;;;;;3.77;3.37;;;;;;;;;;480444;247;27645;-72
2021/06/30 02:24:22;;;;;;;4.30;3.33;;;;;;;;;;480386;247;27547;-72
2021/06/30 02:26:24;;;;;;;4.30;4.00;;;;;;;;;;480404;247;27540;-72
2021/06/30 02:28:27;;;;;;;3.80;3.50;;;;;;;;;;480365;247;27574;-72
2021/06/30 02:30:29;;;;;;;3.23;3.03;;;;;;;;;;480360;247;27559;-72
2021/06/30 02:32:31;;;;;;;3.00;2.80;;;;;;;;;;480391;247;27675;-72
2021/06/30 02:34:33;;;;;;;3.20;2.90;;;;;;;;;;480406;247;27533;-72
2021/06/30 02:36:35;;;;;;;3.57;3.37;;;;;;;;;;480379;247;27618;-72
2021/06/30 02:38:37;;;;;;;6.33;3.10;;;;;;;;;;480366;243;27531;-72
2021/06/30 02:40:39;;;;;;;4.27;3.03;;;;;;;;;;480404;247;27503;-73
2021/06/30 02:42:41;;;;;;;3.30;3.10;;;;;;;;;;480388;247;27508;-72
2021/06/30 02:44:43;;;;;;;4.20;3.13;;;;;;;;;;480409;247;27497;-72
2021/06/30 02:46:46;;;;;;;3.17;2.87;;;;;;;;;;480376;247;27549;-72
2021/06/30 02:48:48;;;;;;;2.73;2.60;;;;;;;;;;480405;247;27579;-72
2021/06/30 02:50:50;;;;;;;2.83;2.63;;;;;;;;;;480384;246;27545;-72
2021/06/30 02:52:52;;;;;;;3.53;3.30;;;;;;;;;;480388;247;27601;-72
2021/06/30 02:54:54;;;;;;;3.07;2.77;;;;;;;;;;480388;247;27530;-72
2021/06/30 02:56:56;;;;;;;3.53;3.23;;;;;;;;;;480395;247;27586;-73
2021/06/30 02:58:58;;;;;;;3.07;2.87;;;;;;;;;;480381;247;27544;-72
2021/06/30 03:01:00;;;;;;;3.57;3.27;;;;;;;;;;480374;247;27601;-72
2021/06/30 03:03:02;;;;;;;3.70;3.40;;;;;;;;;;480361;247;27553;-72
2021/06/30 03:05:05;;;;;;;4.30;3.90;;;;;;;;;;480388;247;27502;-72
2021/06/30 03:07:07;;;;;;;6.17;3.40;;;;;;;;;;480401;247;27507;-72
2021/06/30 03:09:09;;;;;;;3.60;3.30;;;;;;;;;;480395;247;27547;-72
2021/06/30 03:11:11;;;;;;;4.40;4.00;;;;;;;;;;480390;247;27589;-72
2021/06/30 03:13:13;;;;;;;5.13;3.40;;;;;;;;;;480406;247;27550;-72
2021/06/30 03:15:15;;;;;;;4.27;3.97;;;;;;;;;;480407;247;27511;-73
2021/06/30 03:17:17;;;;;;;4.00;3.70;;;;;;;;;;480392;247;28488;-73
2021/06/30 03:19:19;;;;;;;3.20;3.00;;;;;;;;;;480398;247;27502;-72
2021/06/30 03:21:21;;;;;;;3.27;3.07;;;;;;;;;;480402;247;28071;-72
2021/06/30 03:23:24;;;;;;;4.00;3.70;;;;;;;;;;480388;247;27566;-72
2021/06/30 03:25:26;;;;;;;6.90;3.07;;;;;;;;;;480398;247;27562;-72
2021/06/30 03:27:28;;;;;;;3.20;3.00;;;;;;;;;;480396;247;27558;-73
2021/06/30 03:29:30;;;;;;;3.47;3.20;;;;;;;;;;480368;247;28021;-72
2021/06/30 03:31:32;;;;;;;3.40;3.20;;;;;;;;;;480394;247;27618;-72
2021/06/30 03:33:36;;;;;;;2.97;2.80;;;;;;;;;;480367;246;27532;-72
2021/06/30 03:35:36;;;;;;;3.20;3.00;;;;;;;;;;480267;247;27618;-72
2021/06/30 03:37:38;;;;;;;3.07;2.87;;;;;;;;;;480386;247;27557;-72
2021/06/30 03:39:41;;;;;;;3.47;3.17;;;;;;;;;;480393;247;27626;-72
2021/06/30 03:41:43;;;;;;;2.43;2.33;;;;;;;;;;480408;247;27550;-73
2021/06/30 03:43:45;;;;;;;3.00;2.80;;;;;;;;;;480398;247;27542;-72
2021/06/30 03:45:47;;;;;;;3.90;2.90;;;;;;;;;;480401;247;27543;-72
2021/06/30 03:47:49;;;;;;;3.07;2.87;;;;;;;;;;480401;247;27660;-72
2021/06/30 03:49:51;;;;;;;3.43;2.70;;;;;;;;;;480363;247;27626;-72
2021/06/30 03:51:53;;;;;;;2.70;2.50;;;;;;;;;;480382;247;27547;-72
2021/06/30 03:53:55;;;;;;;2.60;2.40;;;;;;;;;;480373;247;27630;-72
2021/06/30 03:55:58;;;;;;;3.00;2.80;;;;;;;;;;480343;247;27609;-72
2021/06/30 03:58:00;;;;;;;4.43;2.70;;;;;;;;;;480199;247;27549;-72
2021/06/30 04:00:02;;;;;;;2.50;2.40;;;;;;;;;;480289;247;27542;-72
2021/06/30 04:02:04;;;;;;;2.83;2.50;;;;;;;;;;480250;247;27534;-72
2021/06/30 04:04:08;;;;;;;2.27;2.17;;;;;;;;;;480335;247;27586;-72
2021/06/30 04:06:08;;;;;;;2.63;2.43;;;;;;;;;;480025;247;27966;-72
2021/06/30 04:08:10;;;;;;;3.50;2.47;;;;;;;;;;480371;247;27527;-72
2021/06/30 04:10:12;;;;;;;3.00;2.80;;;;;;;;;;480354;247;28036;-73
2021/06/30 04:12:14;;;;;;;2.67;2.53;;;;;;;;;;480312;247;27598;-72
2021/06/30 04:14:16;;;;;;;2.60;2.40;;;;;;;;;;480340;247;28031;-73
2021/06/30 04:16:19;;;;;;;2.63;2.43;;;;;;;;;;480409;247;27654;-72
2021/06/30 04:18:21;;;;;;;2.53;2.37;;;;;;;;;;480375;247;27955;-72
2021/06/30 04:20:23;;;;;;;3.20;3.00;;;;;;;;;;480396;247;27502;-72
2021/06/30 04:22:27;;;;;;;2.57;2.47;;;;;;;;;;480373;247;27950;-72
2021/06/30 04:24:27;;;;;;;2.90;2.70;;;;;;;;;;480277;247;27578;-72
2021/06/30 04:26:29;;;;;;;2.70;2.60;;;;;;;;;;480384;247;28048;-72
2021/06/30 04:28:31;;;;;;;2.70;2.60;;;;;;;;;;480399;247;27556;-72
2021/06/30 04:30:33;;;;;;;2.70;2.57;;;;;;;;;;480380;247;27965;-72
2021/06/30 04:32:35;;;;;;;2.50;2.30;;;;;;;;;;480370;247;27510;-73
2021/06/30 04:34:38;;;;;;;3.00;2.80;;;;;;;;;;480371;246;28108;-72
2021/06/30 04:36:40;;;;;;;2.40;2.20;;;;;;;;;;480384;247;27549;-73
2021/06/30 04:38:42;;;;;;;2.30;2.20;;;;;;;;;;480378;247;27553;-72
2021/06/30 04:40:44;;;;;;;2.23;2.00;;;;;;;;;;480408;247;27535;-72
2021/06/30 04:42:46;;;;;;;2.27;2.17;;;;;;;;;;480405;247;27601;-73
2021/06/30 04:44:48;;;;;;;2.30;2.20;;;;;;;;;;480362;247;27547;-72
2021/06/30 04:46:50;;;;;;;2.20;2.10;;;;;;;;;;480378;247;27614;-72
2021/06/30 04:48:52;;;;;;;2.10;2.00;;;;;;;;;;480363;247;27535;-72
2021/06/30 04:50:54;;;;;;;2.00;1.90;;;;;;;;;;480348;247;27820;-72
2021/06/30 04:52:57;;;;;;;1.80;1.70;;;;;;;;;;480392;247;27637;-72
2021/06/30 04:54:59;;;;;;;2.17;1.97;;;;;;;;;;480395;247;27549;-72
2021/06/30 04:57:01;;;;;;;1.80;1.70;;;;;;;;;;480354;247;27610;-72
2021/06/30 04:59:03;;;;;;;2.10;2.00;;;;;;;;;;480400;247;27601;-72
2021/06/30 05:01:05;;;;;;;2.23;2.10;;;;;;;;;;480409;247;27570;-72
2021/06/30 05:03:07;;;;;;;2.20;2.10;;;;;;;;;;480373;247;27522;-72
2021/06/30 05:05:09;;;;;;;2.33;1.87;;;;;;;;;;480387;247;27546;-72
2021/06/30 05:07:11;;;;;;;1.80;1.70;;;;;;;;;;480386;247;27499;-73
2021/06/30 05:09:14;;;;;;;1.63;1.50;;;;;;;;;;480425;247;27594;-72
2021/06/30 05:11:16;;;;;;;2.17;1.70;;;;;;;;;;480420;247;27597;-72
2021/06/30 05:13:18;;;;;;;1.80;1.70;;;;;;;;;;480395;247;27506;-72
2021/06/30 05:15:22;;;;;;;1.40;1.40;;;;;;;;;;480406;247;27613;-72
2021/06/30 05:17:22;;;;;;;1.50;1.40;;;;;;;;;;480246;247;27518;-72
2021/06/30 05:19:24;;;;;;;2.10;2.00;;;;;;;;;;480430;247;27511;-72
2021/06/30 05:21:26;;;;;;;2.30;2.20;;;;;;;;;;480418;247;27520;-73
2021/06/30 05:23:28;;;;;;;2.37;2.20;;;;;;;;;;480420;247;28085;-72
2021/06/30 05:25:30;;;;;;;2.03;1.87;;;;;;;;;;480431;247;27513;-72
2021/06/30 05:27:33;;;;;;;2.13;1.93;;;;;;;;;;480402;247;28189;-72
2021/06/30 05:29:35;;;;;;;1.97;1.87;;;;;;;;;;480430;247;27518;-73
2021/06/30 05:31:37;;;;;;;2.10;2.00;;;;;;;;;;480377;247;28042;-72
2021/06/30 05:33:39;;;;;;;2.10;2.00;;;;;;;;;;480301;247;27642;-72
2021/06/30 05:35:41;;;;;;;2.33;2.23;;;;;;;;;;480244;247;28754;-73
2021/06/30 05:37:43;;;;;;;3.10;2.70;;;;;;;;;;480208;247;27546;-72
2021/06/30 05:39:45;;;;;;;4.83;2.50;;;;;;;;;;480143;247;27590;-72
2021/06/30 05:41:47;;;;;;;3.43;2.67;;;;;;;;;;480368;247;27538;-72
2021/06/30 05:43:49;;;;;;;2.30;2.20;;;;;;;;;;480430;243;27649;-72
2021/06/30 05:45:52;;;;;;;2.27;2.10;;;;;;;;;;480387;247;27537;-72
2021/06/30 05:47:54;;;;;;;2.97;2.27;;;;;;;;;;480383;247;27633;-72
2021/06/30 05:49:56;;;;;;;2.33;2.23;;;;;;;;;;480400;247;27550;-73
2021/06/30 05:51:58;;;;;;;2.80;2.40;;;;;;;;;;480410;247;27558;-72
2021/06/30 05:54:00;;;;;;;2.40;2.30;;;;;;;;;;480404;247;27535;-72
2021/06/30 05:56:02;;;;;;;2.50;2.30;;;;;;;;;;480406;247;27555;-72
2021/06/30 05:58:04;;;;;;;3.00;2.30;;;;;;;;;;480383;247;27614;-72
2021/06/30 06:00:06;;;;;;;3.17;2.40;;;;;;;;;;480400;247;27629;-72
2021/06/30 06:02:08;;;;;;;2.33;2.23;;;;;;;;;;480403;247;27621;-72
2021/06/30 06:04:11;;;;;;;2.33;2.23;;;;;;;;;;480396;247;27539;-72
2021/06/30 06:06:13;;;;;;;1.97;1.87;;;;;;;;;;480388;247;27546;-72
2021/06/30 06:08:15;;;;;;;2.27;2.17;;;;;;;;;;480397;247;27503;-72
2021/06/30 06:10:17;;;;;;;2.47;2.30;;;;;;;;;;480382;247;27579;-72
2021/06/30 06:12:19;;;;;;;2.87;2.67;;;;;;;;;;480428;247;27963;-72
2021/06/30 06:14:21;;;;;;;2.27;2.07;;;;;;;;;;480416;247;27523;-72
2021/06/30 06:16:23;;;;;;;2.57;2.37;;;;;;;;;;480410;247;28011;-72
2021/06/30 06:18:25;;;;;;;2.23;2.13;;;;;;;;;;480421;247;27514;-72
2021/06/30 06:20:28;;;;;;;2.30;2.20;;;;;;;;;;480445;247;27511;-72
2021/06/30 06:22:30;;;;;;;2.47;2.27;;;;;;;;;;480425;247;27540;-72
2021/06/30 06:24:32;;;;;;;2.40;2.30;;;;;;;;;;480395;247;27962;-72
2021/06/30 06:26:34;;;;;;;2.10;2.00;;;;;;;;;;480395;247;27508;-73
2021/06/30 06:28:36;;;;;;;2.57;2.37;;;;;;;;;;480401;247;27959;-72
2021/06/30 06:30:38;;;;;;;1.90;1.80;;;;;;;;;;480267;242;27486;-72
2021/06/30 06:32:40;;;;;;;5.47;2.00;;;;;;;;;;480386;247;29935;-73
2021/06/30 06:34:42;;;;;;;2.10;2.00;;;;;;;;;;480383;247;27603;-72
2021/06/30 06:36:44;;;;;;;3.37;2.07;;;;;;;;;;480400;247;27981;-72
2021/06/30 06:38:47;;;;;;;2.20;1.60;;;;;;;;;;480387;247;27587;-73
2021/06/30 06:40:49;;;;;;;2.30;2.20;;;;;;;;;;480401;247;28025;-73
2021/06/30 06:42:51;;;;;;;2.10;1.90;;;;;;;;;;480378;247;27622;-73
2021/06/30 06:44:53;;;;;;;2.20;2.10;;;;;;;;;;480349;247;28003;-72
2021/06/30 06:46:55;;;;;;;2.30;2.20;;;;;;;;;;480399;247;27621;-72
2021/06/30 06:48:57;;;;;;;1.73;1.63;;;;;;;;;;480362;247;28184;-72
2021/06/30 06:50:59;;;;;;;2.83;1.93;;;;;;;;;;480376;247;27557;-73
2021/06/30 06:53:01;;;;;;;2.60;2.40;;;;;;;;;;480388;247;28047;-72
2021/06/30 06:55:09;;;;;;;2.17;2.03;;;;;;;;;;480382;247;27571;-72
2021/06/30 06:57:06;;;;;;;2.30;2.20;;;;;;;;;;480042;247;28006;-72
2021/06/30 06:59:08;;;;;;;3.07;2.47;;;;;;;;;;480243;247;27548;-72
2021/06/30 07:01:10;;;;;;;2.33;2.23;;;;;;;;;;480413;247;27551;-72
2021/06/30 07:03:12;;;;;;;3.00;2.20;;;;;;;;;;480398;247;27534;-73
2021/06/30 07:05:14;;;;;;;2.60;2.40;;;;;;;;;;480430;247;27553;-72
2021/06/30 07:07:16;;;;;;;2.00;1.80;;;;;;;;;;480403;247;27617;-72
2021/06/30 07:09:18;;;;;;;2.37;2.20;;;;;;;;;;480423;247;27509;-73
2021/06/30 07:11:20;;;;;;;2.13;2.00;;;;;;;;;;480394;247;27640;-72
2021/06/30 07:13:22;;;;;;;2.13;2.03;;;;;;;;;;480393;247;27505;-72
2021/06/30 07:15:25;;;;;;;2.40;2.30;;;;;;;;;;480398;247;27516;-72
2021/06/30 07:17:27;;;;;;;2.30;2.20;;;;;;;;;;480392;247;27499;-73
2021/06/30 07:19:29;;;;;;;2.40;2.20;;;;;;;;;;480369;247;27587;-72
2021/06/30 07:21:33;;;;;;;2.03;1.93;;;;;;;;;;480425;247;27947;-72
2021/06/30 07:23:33;;;;;;;3.63;2.10;;;;;;;;;;480272;247;27515;-72
2021/06/30 07:25:35;;;;;;;2.27;2.17;;;;;;;;;;480391;247;28012;-73
2021/06/30 07:27:37;;;;;;;2.07;1.93;;;;;;;;;;480374;247;27511;-72
2021/06/30 07:29:39;;;;;;;2.30;2.10;;;;;;;;;;480348;247;28029;-72
2021/06/30 07:31:42;;;;;;;2.10;2.00;;;;;;;;;;480377;247;27628;-72
2021/06/30 07:33:44;;;;;;;2.70;2.50;;;;;;;;;;480398;247;28068;-72
2021/06/30 07:35:46;;;;;;;2.27;2.10;;;;;;;;;;480388;247;27511;-73
2021/06/30 07:37:48;;;;;;;2.23;2.13;;;;;;;;;;480414;247;27986;-73
2021/06/30 07:39:50;;;;;;;2.03;1.93;;;;;;;;;;480400;247;27562;-72
2021/06/30 07:41:52;;;;;;;2.40;2.13;;;;;;;;;;480387;247;28057;-72
2021/06/30 07:43:54;;;;;;;2.33;2.13;;;;;;;;;;480361;247;27586;-73
2021/06/30 07:45:56;;;;;;;2.13;1.97;;;;;;;;;;480388;247;28007;-73
2021/06/30 07:47:58;;;;;;;2.10;1.90;;;;;;;;;;480397;247;27546;-73
2021/06/30 07:50:01;;;;;;;2.27;2.13;;;;;;;;;;480393;247;27989;-72
2021/06/30 07:52:03;;;;;;;1.97;1.80;;;;;;;;;;480380;247;27549;-72
2021/06/30 07:54:05;;;;;;;2.20;2.10;;;;;;;;;;480395;247;27543;-73
2021/06/30 07:56:07;;;;;;;2.17;2.07;;;;;;;;;;480308;247;27617;-72
2021/06/30 07:58:09;;;;;;;2.07;1.97;;;;;;;;;;480384;247;27541;-73
2021/06/30 08:00:11;;;;;;;2.30;2.20;;;;;;;;;;480363;247;27546;-72
2021/06/30 08:02:13;;;;;;;2.70;2.50;;;;;;;;;;480365;247;27547;-72
2021/06/30 08:04:15;;;;;;;2.90;2.70;;;;;;;;;;480376;247;27540;-72
2021/06/30 08:06:17;;;;;;;2.90;2.60;;;;;;;;;;480393;247;27540;-72
2021/06/30 08:08:20;;;;;;;2.60;2.40;;;;;;;;;;480388;247;27537;-72
2021/06/30 08:10:22;;;;;;;2.57;2.37;;;;;;;;;;480373;247;27542;-73
2021/06/30 08:12:24;;;;;;;2.83;2.63;;;;;;;;;;480351;247;27609;-72
2021/06/30 08:14:26;;;;;;;2.77;2.57;;;;;;;;;;480373;247;27525;-72
2021/06/30 08:16:28;;;;;;;2.37;2.20;;;;;;;;;;480407;246;27622;-72
2021/06/30 08:18:30;;;;;;;2.60;2.40;;;;;;;;;;480334;247;27543;-72
2021/06/30 08:20:32;;;;;;;2.30;2.10;;;;;;;;;;480376;247;27518;-73
2021/06/30 08:22:34;;;;;;;2.20;2.10;;;;;;;;;;480373;247;27516;-73
2021/06/30 08:24:37;;;;;;;2.20;2.10;;;;;;;;;;480395;247;27502;-72
2021/06/30 08:26:39;;;;;;;2.00;1.90;;;;;;;;;;480359;247;27979;-73
2021/06/30 08:28:41;;;;;;;2.20;2.10;;;;;;;;;;480350;247;27507;-73
2021/06/30 08:30:43;;;;;;;2.10;2.00;;;;;;;;;;480384;247;27987;-73
2021/06/30 08:32:46;;;;;;;1.90;1.80;;;;;;;;;;480404;247;27515;-72
2021/06/30 08:34:47;;;;;;;2.77;1.93;;;;;;;;;;480386;247;27975;-72
2021/06/30 08:36:54;;;;;;;2.30;2.10;;;;;;;;;;480389;247;27521;-73
2021/06/30 08:38:52;;;;;;;2.90;1.97;;;;;;;;;;479954;247;28009;-73
2021/06/30 08:40:53;;;;;;;1.90;1.80;;;;;;;;;;480400;247;27605;-73
2021/06/30 08:42:55;;;;;;;3.07;1.93;;;;;;;;;;480391;247;27955;-73
2021/06/30 08:44:58;;;;;;;2.20;2.03;;;;;;;;;;480386;247;27491;-73
2021/06/30 08:47:00;;;;;;;2.10;2.00;;;;;;;;;;480363;247;28128;-72
2021/06/30 08:49:02;;;;;;;2.30;2.10;;;;;;;;;;480264;247;27586;-73
2021/06/30 08:51:04;;;;;;;1.83;1.73;;;;;;;;;;480394;247;28010;-73
2021/06/30 08:53:09;;;;;;;2.40;1.80;;;;;;;;;;480379;247;27640;-73
2021/06/30 08:55:08;;;;;;;2.00;1.90;;;;;;;;;;480191;247;27546;-73
2021/06/30 08:57:10;;;;;;;2.20;1.63;;;;;;;;;;480381;247;27550;-72
2021/06/30 08:59:12;;;;;;;2.00;1.90;;;;;;;;;;480396;247;27547;-73
2021/06/30 09:01:14;;;;;;;1.90;1.80;;;;;;;;;;480386;242;27608;-73
2021/06/30 09:03:18;;;;;;;1.70;1.60;;;;;;;;;;480372;247;27539;-73
2021/06/30 09:07:24;;;;;;;1.67;1.57;;;;;;;;;;480387;247;27629;-73
2021/06/30 09:09:26;;;;;;;1.63;1.53;;;;;;;;;;480393;247;27506;-73
2021/06/30 09:11:28;;;;;;;1.60;1.50;;;;;;;;;;480378;247;27490;-73
2021/06/30 09:13:31;;;;;;;1.50;1.43;;;;;;;;;;480371;247;27641;-73
2021/06/30 09:15:36;;;;;;;1.43;1.43;;;;;;;;;;480308;247;27590;-73
2021/06/30 09:17:37;;;;;;;1.43;1.43;;;;;;;;;;480344;247;27602;-73
2021/06/30 09:19:39;;;;;;;1.50;1.50;;;;;;;;;;480377;247;27423;-73
2021/06/30 09:21:41;;;;;;;1.50;1.50;;;;;;;;;;480353;247;27559;-73
2021/06/30 09:23:43;;;;;;;1.70;1.60;;;;;;;;;;480366;247;27554;-73
2021/06/30 09:25:45;;;;;;;2.10;1.60;;;;;;;;;;480366;247;27545;-73
2021/06/30 09:27:47;;;;;;;2.20;1.50;;;;;;;;;;480365;247;27629;-73
2021/06/30 09:29:49;;;;;;;1.50;1.50;;;;;;;;;;480392;247;27541;-73
2021/06/30 09:31:52;;;;;;;2.27;2.10;;;;;;;;;;480365;247;27621;-73
2021/06/30 09:33:54;;;;;;;1.83;1.70;;;;;;;;;;480384;247;28105;-73
2021/06/30 09:35:56;;;;;;;1.50;1.50;;;;;;;;;;480362;247;27539;-73
2021/06/30 09:37:58;;;;;;;1.93;1.77;;;;;;;;;;480310;247;28049;-73
2021/06/30 09:40:00;;;;;;;1.73;1.63;;;;;;;;;;480283;247;27622;-72
2021/06/30 09:42:02;;;;;;;1.53;1.43;;;;;;;;;;480370;247;28130;-72
2021/06/30 09:44:05;;;;;;;2.03;1.80;;;;;;;;;;480388;247;27655;-72
2021/06/30 09:46:06;;;;;;;1.60;1.50;;;;;;;;;;480405;247;28032;-72
2021/06/30 09:48:08;;;;;;;1.53;1.50;;;;;;;;;;480403;247;27534;-73
2021/06/30 09:50:11;;;;;;;1.50;1.50;;;;;;;;;;480399;247;28017;-73
2021/06/30 09:52:15;;;;;;;1.80;1.70;;;;;;;;;;480414;247;27506;-73
2021/06/30 09:54:15;;;;;;;2.00;1.40;;;;;;;;;;480187;247;27959;-73
2021/06/30 09:56:32;;;;;;;1.47;1.37;;;;;;;;;;480376;247;27510;-72
2021/06/30 09:58:34;;;;;;;1.73;1.63;;;;;;;;;;480399;247;27609;-73
2021/06/30 10:00:36;;;;;;;1.60;1.60;;;;;;;;;;480405;247;27642;-73
2021/06/30 10:02:39;;;;;;;1.47;1.40;;;;;;;;;;480414;247;27546;-73
2021/06/30 10:04:41;;;;;;;1.43;1.43;;;;;;;;;;480374;247;27605;-73
2021/06/30 10:06:43;;;;;;;1.60;1.50;;;;;;;;;;480405;247;27546;-73
2021/06/30 10:08:45;;;;;;;1.50;1.40;;;;;;;;;;480409;247;27608;-73
2021/06/30 10:10:48;;;;;;;2.03;1.77;;;;;;;;;;480414;247;27510;-73
2021/06/30 10:12:49;;;;;;;1.60;1.50;;;;;;;;;;480392;247;27570;-73
2021/06/30 10:14:52;;;;;;;1.57;1.47;;;;;;;;;;480394;247;27503;-73
2021/06/30 10:16:53;;;;;;;1.57;1.47;;;;;;;;;;480401;247;27575;-73
2021/06/30 10:18:56;;;;;;;2.80;1.30;;;;;;;;;;480415;247;27595;-73
2021/06/30 10:20:58;;;;;;;1.60;1.50;;;;;;;;;;480407;247;27520;-73
2021/06/30 10:23:00;;;;;;;1.40;1.40;;;;;;;;;;480311;247;27528;-73
2021/06/30 10:25:02;;;;;;;1.40;1.40;;;;;;;;;;480312;247;27495;-73
2021/06/30 10:27:04;;;;;;;1.60;1.50;;;;;;;;;;480373;247;27619;-73
2021/06/30 10:29:06;;;;;;;1.50;1.50;;;;;;;;;;480391;247;27503;-74
2021/06/30 10:31:08;;;;;;;1.23;1.23;;;;;;;;;;480392;247;27912;-73
2021/06/30 10:33:10;;;;;;;1.83;1.73;;;;;;;;;;480393;247;27523;-73
2021/06/30 10:35:12;;;;;;;1.60;1.50;;;;;;;;;;480408;247;27573;-73
2021/06/30 10:37:15;;;;;;;1.60;1.50;;;;;;;;;;480410;247;27498;-73
2021/06/30 10:39:17;;;;;;;1.60;1.50;;;;;;;;;;480370;243;27495;-74
2021/06/30 10:41:19;;;;;;;1.43;1.33;;;;;;;;;;480329;246;27514;-73
2021/06/30 10:43:21;;;;;;;2.00;1.50;;;;;;;;;;480406;247;27670;-73
2021/06/30 10:45:24;;;;;;;1.73;1.60;;;;;;;;;;480436;247;27614;-73
2021/06/30 10:47:26;;;;;;;1.67;1.60;;;;;;;;;;480396;247;27555;-73
2021/06/30 10:49:27;;;;;;;1.77;1.60;;;;;;;;;;480376;247;27543;-73
2021/06/30 10:51:29;;;;;;;1.80;1.70;;;;;;;;;;480408;247;27991;-73
2021/06/30 10:53:34;;;;;;;1.70;1.60;;;;;;;;;;480404;247;27499;-73
2021/06/30 10:55:37;;;;;;;1.30;1.30;;;;;;;;;;480235;247;27569;-73
2021/06/30 10:57:38;;;;;;;1.47;1.40;;;;;;;;;;480390;247;27615;-73
2021/06/30 10:59:40;;;;;;;1.50;1.40;;;;;;;;;;480379;247;27545;-73
2021/06/30 11:01:43;;;;;;;1.57;1.43;;;;;;;;;;480385;247;27578;-73
2021/06/30 11:03:45;;;;;;;1.60;1.50;;;;;;;;;;480382;247;27506;-73
2021/06/30 11:05:47;;;;;;;1.40;1.30;;;;;;;;;;480383;247;27503;-73
2021/06/30 11:07:49;;;;;;;1.70;1.60;;;;;;;;;;480392;247;27507;-73
2021/06/30 11:09:51;;;;;;;1.33;1.30;;;;;;;;;;480386;247;27543;-73
2021/06/30 11:11:53;;;;;;;1.23;1.20;;;;;;;;;;480404;247;27520;-73
2021/06/30 11:13:55;;;;;;;1.40;1.30;;;;;;;;;;480408;247;27500;-73
2021/06/30 11:15:57;;;;;;;1.80;1.40;;;;;;;;;;480390;247;27589;-73
2021/06/30 11:17:59;;;;;;;2.23;1.60;;;;;;;;;;480394;247;27570;-73
2021/06/30 11:20:02;;;;;;;1.60;1.50;;;;;;;;;;480384;247;27503;-72
2021/06/30 11:22:08;;;;;;;1.63;1.53;;;;;;;;;;480401;247;27582;-73
2021/06/30 11:24:08;;;;;;;2.33;2.10;;;;;;;;;;480226;247;27646;-73
2021/06/30 11:26:11;;;;;;;1.50;1.50;;;;;;;;;;480408;247;27552;-73
2021/06/30 11:28:13;;;;;;;1.80;1.70;;;;;;;;;;480397;247;27543;-73
2021/06/30 11:30:15;;;;;;;1.60;1.50;;;;;;;;;;480394;247;27533;-73
2021/06/30 11:32:17;;;;;;;1.37;1.37;;;;;;;;;;480271;247;27554;-73
2021/06/30 11:34:20;;;;;;;1.73;1.63;;;;;;;;;;480403;247;27541;-73
2021/06/30 11:36:21;;;;;;;1.80;1.70;;;;;;;;;;480355;247;27553;-73
2021/06/30 11:38:23;;;;;;;2.50;2.00;;;;;;;;;;480369;247;27526;-73
2021/06/30 11:41:13;;;;;;;1.80;1.80;;;;;;;;;;480361;247;27550;-73
2021/06/30 11:42:27;;;;;;;2.13;1.93;;;;;;;;;;473285;247;27593;-73
2021/06/30 11:44:30;;;;;;;1.80;1.70;;;;;;;;;;480399;247;27499;-73
2021/06/30 11:46:34;;;;;;;3.90;1.80;;;;;;;;;;480396;247;27565;-73
2021/06/30 11:48:35;;;;;;;1.90;1.80;;;;;;;;;;480190;247;27498;-73
2021/06/30 11:50:36;;;;;;;1.73;1.63;;;;;;;;;;480137;247;27523;-73
2021/06/30 11:52:38;;;;;;;3.63;1.53;;;;;;;;;;480385;242;27504;-72
2021/06/30 11:54:40;;;;;;;1.50;1.50;;;;;;;;;;480335;247;27988;-73
2021/06/30 11:56:42;;;;;;;1.90;1.80;;;;;;;;;;480343;247;27526;-73
2021/06/30 11:58:49;;;;;;;2.00;1.80;;;;;;;;;;480308;247;27967;-73
2021/06/30 12:00:49;;;;;;;1.80;1.70;;;;;;;;;;480260;247;27559;-73
2021/06/30 12:02:52;;;;;;;1.80;1.70;;;;;;;;;;480352;247;27541;-73
2021/06/30 12:04:54;;;;;;;1.47;1.37;;;;;;;;;;480351;247;27599;-73
2021/06/30 12:06:56;;;;;;;1.80;1.70;;;;;;;;;;480361;247;27515;-73
2021/06/30 12:08:58;;;;;;;1.80;1.70;;;;;;;;;;480384;247;27495;-74
2021/06/30 12:11:00;;;;;;;1.97;1.87;;;;;;;;;;480407;247;27554;-73
2021/06/30 12:13:02;;;;;;;1.83;1.50;;;;;;;;;;480373;247;27594;-73
2021/06/30 12:15:04;;;;;;;1.60;1.50;;;;;;;;;;480389;247;27514;-73